Hauptseite
METAR-TAF:

METAR-TAF

Flughäfen :

Gloucester, England

Breite: 51-54N, Länge: 002-10W, Höhe: 29 m

Beobachtung

Neuester Wetterbericht von vor 11 Stunden und 24 Minuten, um 18:50 UTC
Windstille
Temperatur 2°C
Luftfeuchtigkeit 93%
Luftdruck 998 hPa
Sichtweite 10 km oder mehr
Leicht bewölkt in der Höhe von 1500 ft

METAR: EGBJ 221850Z 00000KT 9999 FEW015 02/01 Q0998

Zeit: 06:14 (06:14 UTC)

Prognose

Neuester Wetterbericht von vor 13 Stunden und 13 Minuten, um 17:01 UTC
Gültige Prognose vom 22 um 18 UTC bis 22 um 20 UTC
Wind 5 kt aus West/Südwest
Sichtweite 10 km oder mehr
Leicht bewölkt in der Höhe von 2000 ft
Wahrscheinlichkeit 30% :
Zeitweise
vom 22 um 18 UTC bis 22 um 20 UTC
Sichtweite: 3000 m
Durchbrochene Bewölkung in der Höhe von 800 ft
Regenschauer, Schnee

TAF: EGBJ 221701Z 2218/2220 24005KT 9999 FEW020 PROB30 TEMPO 2218/2220 3000 SHRASN BKN008

Wetterbeobachtungen und Prognosen von mehr als 4000 Flughäfen (METAR und TAF Bericht).

Die verfügbaren Stationen werden durch gelbe und rote Markierungen auf der Karte dargestellt.

Führen Sie die Maus auf sie, um den Namen der Station zu sehen.

Darauf klicken, um die Beobachtung von Wetterbeobachtungen und Prognosen zu sehen.

Um die Karte zu ändern : klicken Sie auf den grünen Tasten mit einem schwarzen Kreuz Zum Vergrößern, auf den grünen Button mit einem Gedankenstrich zu verkleinern, oder auf die grünen Pfeile für benachbarte Karten.


METAR-TAF: